ROMMA est une association bénévole à but non lucratif. Votre soutien est indispensable : ADHERER à ROMMA ou FAIRE un DON

Taninges - (74, Haute-Savoie)

Vallée du Giffre (635 m)   Longitude: 06° 35' 38" E   Latitude: 46° 06' 21" N Station romma n°98
 

Détail journalier du     <<     >>

Température Precipitation Humidité Pression Vent Dir Rafale Dir. rafale Ensol.
Heure (°C) (mm) (%) (hPa) (km/h) (km/h) (min)
01:00 21.209210113ENE13ESE0
02:00 20.909410111SE5SE0
03:00 20.609410111SE5SE0
04:00 20.409510111SE3SE0
05:00 19.33.89210113NE23NO0
06:00 18.93.49410134O16O0
07:00 18.70.29510133ENE8ENE0
08:00 18.30.29510152ESE11O0
09:00 17.919510167OSO18OSO0
10:00 17.809510174OSO11OSO0
11:00 17.709110175OSO11O0
12:00 20.208610172OSO6OSO5
13:00 21.208210166SO16SO0
14:00 21.907810167OSO18SO0
15:00 22.707210166OSO16OSO10
16:00 22.507310164SSO10SSO5
17:00 22.107610164SSE10SSE0
18:00 22.107610166SE15SSE0
19:00 21.607910165E11ESE5
20:00 20.808210173E8E10
21:00 19.108610171NE8NE0
22:00 17.4092101803NE0
23:00 16.0093101803NE0
minuit 15.709510181ENE5ENE0

Graphique du 10-08-2019

 

Serveur OMMA